Time;durP1;ratioP1;P1;durP2;ratioP2;P2;SDS_P1;SDS_P2;PMS_P1;PMS_P2;Temp;Humidity;BMP_temperature;BMP_pressure;BME280_temperature;BME280_humidity;BME280_pressure;Samples;Min_cycle;Max_cycle;Signal;HPM_P1;HPM_P2
2022/06/04 00:02:21;;;;;;;;;11.00;10.00;;;;;16.99;55.10;100016.44;5117912;28;8825;-65
2022/06/04 00:04:49;;;;;;;;;11.00;11.00;;;;;16.93;55.35;100024.34;5117836;28;8952;-65
2022/06/04 00:07:17;;;;;;;;;8.50;6.75;;;;;16.87;55.82;100022.28;5118072;28;8960;-65
2022/06/04 00:15:29;;;;;;;;;7.50;7.00;;;;;16.82;55.69;100029.97;5118472;28;8953;-65
2022/06/04 00:15:37;;;;;;;;;9.50;9.25;;;;;16.78;55.74;100021.38;5118410;28;8849;-64
2022/06/04 00:18:05;;;;;;;;;9.00;9.00;;;;;16.76;55.98;100017.16;5118576;28;8837;-65
2022/06/04 00:20:32;;;;;;;;;7.75;6.50;;;;;16.73;55.49;100015.66;5118307;28;9491;-64
2022/06/04 00:23:00;;;;;;;;;6.00;6.00;;;;;16.70;55.83;100024.03;5108245;28;8838;-65
2022/06/04 00:25:28;;;;;;;;;8.50;8.00;;;;;16.65;55.96;100018.25;5096217;28;8907;-65
2022/06/04 00:27:56;;;;;;;;;10.50;10.50;;;;;16.63;55.92;100009.53;5101042;28;8852;-64
2022/06/04 00:30:23;;;;;;;;;9.00;9.00;;;;;16.62;56.13;100007.84;5116111;28;9006;-65
2022/06/04 00:32:51;;;;;;;;;9.00;9.00;;;;;16.61;55.89;100010.66;5117935;28;9097;-66
2022/06/04 00:35:19;;;;;;;;;7.50;7.00;;;;;16.57;55.70;100007.47;5117802;28;8832;-65
2022/06/04 00:37:47;;;;;;;;;12.00;11.50;;;;;16.54;56.18;100015.00;5118574;28;8854;-64
2022/06/04 00:40:15;;;;;;;;;12.00;9.75;;;;;16.49;55.78;100006.56;5117977;28;8916;-65
2022/06/04 00:42:43;;;;;;;;;8.50;7.00;;;;;16.44;56.27;100004.38;5117714;28;8828;-66
2022/06/04 00:45:11;;;;;;;;;8.00;8.00;;;;;16.41;56.15;99998.47;5117961;28;8831;-64
2022/06/04 00:47:41;;;;;;;;;8.25;8.00;;;;;16.36;56.07;99995.34;5117686;28;8808;-65
2022/06/04 00:50:09;;;;;;;;;12.75;9.50;;;;;16.30;56.62;99995.97;5118128;28;8828;-65
2022/06/04 00:52:37;;;;;;;;;7.00;7.00;;;;;16.23;56.72;99999.47;5118022;28;8840;-64
2022/06/04 00:55:04;;;;;;;;;6.50;6.50;;;;;16.17;56.92;100001.75;5116710;28;8838;-66
2022/06/04 00:57:33;;;;;;;;;9.00;9.00;;;;;16.12;56.95;99997.88;5097328;28;8830;-65
2022/06/04 01:00:00;;;;;;;;;9.75;9.25;;;;;16.07;57.20;100010.09;5097566;28;8834;-65
2022/06/04 01:02:28;;;;;;;;;9.00;9.00;;;;;16.03;57.13;100016.75;5097134;28;9587;-64
2022/06/04 01:04:56;;;;;;;;;12.50;12.00;;;;;15.99;57.22;100018.06;5096911;28;8854;-65
2022/06/04 01:07:24;;;;;;;;;9.50;9.50;;;;;15.98;56.60;100021.72;5095502;28;8980;-65
2022/06/04 01:09:52;;;;;;;;;12.00;10.00;;;;;15.97;57.06;100022.72;5096257;28;9635;-64
2022/06/04 01:12:20;;;;;;;;;9.50;8.50;;;;;15.99;56.74;100028.81;5097249;28;8850;-64
2022/06/04 01:14:47;;;;;;;;;9.50;9.00;;;;;16.02;56.85;100028.50;5096929;28;8960;-64
2022/06/04 01:17:20;;;;;;;;;6.00;6.00;;;;;16.07;56.65;100034.25;5097263;28;8838;-64
2022/06/04 01:19:48;;;;;;;;;10.00;10.00;;;;;16.10;56.77;100031.25;5097174;28;9650;-64
2022/06/04 01:22:15;;;;;;;;;9.00;7.00;;;;;16.14;57.03;100032.66;5096793;28;8957;-64
2022/06/04 01:24:43;;;;;;;;;10.00;9.50;;;;;16.15;56.69;100034.34;5097281;28;8924;-64
2022/06/04 01:27:11;;;;;;;;;12.00;10.67;;;;;16.16;56.45;100033.34;5116118;28;8912;-64
2022/06/04 01:29:39;;;;;;;;;9.00;9.00;;;;;16.17;56.26;100037.69;5116816;28;8824;-64
2022/06/04 01:32:07;;;;;;;;;11.50;10.00;;;;;16.16;56.21;100038.72;5117081;28;8978;-65
2022/06/04 01:34:35;;;;;;;;;10.50;9.75;;;;;16.15;56.74;100045.09;5117472;28;8870;-64
2022/06/04 01:37:03;;;;;;;;;6.50;6.00;;;;;16.12;56.47;100048.06;5117251;28;8848;-64
2022/06/04 01:41:03;;;;;;;;;11.50;10.00;;;;;16.09;56.24;100051.91;5117251;28;8831;-64
2022/06/04 01:42:18;;;;;;;;;8.00;8.00;;;;;16.05;56.36;100066.66;5117049;28;8832;-64
2022/06/04 01:44:46;;;;;;;;;11.00;10.00;;;;;16.01;56.98;100064.44;5115675;28;8832;-64
2022/06/04 01:47:14;;;;;;;;;11.00;9.25;;;;;15.98;57.09;100067.41;5115799;28;8971;-64
2022/06/04 01:49:42;;;;;;;;;4.50;4.00;;;;;15.93;56.66;100061.66;5117101;28;9481;-64
2022/06/04 01:52:11;;;;;;;;;9.00;9.00;;;;;15.91;56.73;100058.28;5116610;28;8824;-64
2022/06/04 01:54:38;;;;;;;;;8.00;8.00;;;;;15.87;57.22;100065.81;5114223;28;8892;-64
2022/06/04 01:57:07;;;;;;;;;7.50;7.00;;;;;15.83;57.16;100066.25;5096157;28;8856;-64
2022/06/04 01:59:34;;;;;;;;;10.00;9.00;;;;;15.81;56.82;100065.56;5096357;28;9629;-64
2022/06/04 02:02:04;;;;;;;;;8.00;7.00;;;;;15.79;57.30;100068.38;5096204;28;8952;-64
2022/06/04 02:04:31;;;;;;;;;9.00;9.00;;;;;15.77;57.15;100069.56;5096780;28;8834;-65
2022/06/04 02:09:45;;;;;;;;;12.00;10.00;;;;;15.72;56.95;100069.16;5097452;28;8948;-64
2022/06/04 02:12:13;;;;;;;;;11.00;9.00;;;;;15.68;57.48;100071.28;5095795;28;8826;-64
2022/06/04 02:14:40;;;;;;;;;8.00;7.50;;;;;15.64;57.40;100067.22;5096104;28;8979;-65
2022/06/04 02:17:08;;;;;;;;;6.50;6.50;;;;;15.60;57.17;100078.41;5095172;28;8850;-65
2022/06/04 02:19:36;;;;;;;;;9.00;7.00;;;;;15.56;56.99;100077.03;5096177;28;9032;-64
2022/06/04 02:22:04;;;;;;;;;11.50;9.75;;;;;15.52;57.39;100073.81;5096193;28;8822;-64
2022/06/04 02:24:32;;;;;;;;;7.50;7.25;;;;;15.48;57.29;100082.31;5096775;28;8838;-64
2022/06/04 02:27:01;;;;;;;;;3.75;3.25;;;;;15.44;57.75;100073.72;5116220;28;8846;-64
2022/06/04 02:29:30;;;;;;;;;6.75;6.00;;;;;15.42;57.90;100089.13;5116142;28;8839;-64
2022/06/04 02:31:58;;;;;;;;;8.00;7.50;;;;;15.42;58.24;100080.22;5116250;28;8844;-65
2022/06/04 02:34:26;;;;;;;;;6.50;6.50;;;;;15.41;57.59;100070.47;5116342;28;8844;-64
2022/06/04 02:36:55;;;;;;;;;5.50;5.00;;;;;15.39;57.57;100072.47;5116306;28;8839;-64
2022/06/04 02:39:23;;;;;;;;;6.00;5.00;;;;;15.35;57.81;100076.44;5116267;28;8836;-65
2022/06/04 02:41:51;;;;;;;;;7.00;7.00;;;;;15.31;57.86;100069.66;5116254;28;8830;-64
2022/06/04 02:44:19;;;;;;;;;8.00;7.00;;;;;15.29;57.58;100063.56;5115708;28;8840;-64
2022/06/04 02:46:47;;;;;;;;;6.00;6.00;;;;;15.28;58.04;100053.84;5115614;28;8839;-65
2022/06/04 02:49:15;;;;;;;;;6.00;6.00;;;;;15.28;58.01;100054.69;5115826;28;8936;-64
2022/06/04 02:51:43;;;;;;;;;7.00;6.50;;;;;15.28;58.09;100059.19;5115688;28;8828;-64
2022/06/04 02:54:11;;;;;;;;;6.50;6.00;;;;;15.25;57.61;100065.72;5114288;28;8832;-66
2022/06/04 02:56:39;;;;;;;;;7.50;7.50;;;;;15.20;57.82;100059.97;5095759;28;8846;-64
2022/06/04 02:59:07;;;;;;;;;6.25;5.00;;;;;15.14;57.98;100055.19;5095425;28;8866;-64
2022/06/04 03:01:35;;;;;;;;;7.00;7.00;;;;;15.13;58.47;100044.59;5095400;28;8866;-64
2022/06/04 03:04:03;;;;;;;;;6.00;6.00;;;;;15.12;58.34;100040.22;5095843;28;8834;-65
2022/06/04 03:06:31;;;;;;;;;9.00;9.00;;;;;15.12;58.23;100037.53;5095507;28;8838;-64
2022/06/04 03:08:59;;;;;;;;;8.00;7.00;;;;;15.12;58.14;100043.75;5094529;28;8830;-65
2022/06/04 03:11:27;;;;;;;;;7.00;7.00;;;;;15.11;58.15;100049.25;5098188;28;8867;-64
2022/06/04 03:13:55;;;;;;;;;7.33;6.33;;;;;15.10;58.75;100047.56;5113787;28;8832;-64
2022/06/04 03:16:22;;;;;;;;;8.50;8.00;;;;;15.11;58.49;100041.22;5115632;28;8946;-64
2022/06/04 03:18:50;;;;;;;;;6.00;6.00;;;;;15.12;58.59;100034.84;5115660;28;8978;-64
2022/06/04 03:21:18;;;;;;;;;6.50;4.00;;;;;15.09;58.44;100040.53;5114004;28;8828;-66
2022/06/04 03:23:46;;;;;;;;;8.50;7.75;;;;;15.02;58.99;100042.13;5114301;28;8843;-64
2022/06/04 03:26:14;;;;;;;;;6.00;5.00;;;;;14.95;58.64;100044.50;5097345;28;8834;-64
2022/06/04 03:28:42;;;;;;;;;6.50;6.00;;;;;14.89;58.95;100038.91;5095216;28;8836;-64
2022/06/04 03:31:10;;;;;;;;;7.50;7.00;;;;;14.84;58.90;100038.50;5099092;28;8846;-64
2022/06/04 03:33:38;;;;;;;;;4.50;4.50;;;;;14.78;58.79;100044.44;5098877;28;8830;-64
2022/06/04 03:36:05;;;;;;;;;7.00;6.75;;;;;14.74;59.48;100048.41;5099159;28;8830;-64
2022/06/04 03:38:34;;;;;;;;;7.00;7.00;;;;;14.72;59.36;100050.41;5098978;28;8853;-64
2022/06/04 03:41:02;;;;;;;;;6.50;6.25;;;;;14.70;58.99;100044.31;5098828;28;8856;-64
2022/06/04 03:43:30;;;;;;;;;6.50;6.50;;;;;14.70;59.38;100030.91;5099209;28;8830;-64
2022/06/04 03:45:58;;;;;;;;;9.00;6.00;;;;;14.70;58.95;100033.59;5098239;28;8898;-64
2022/06/04 03:48:26;;;;;;;;;6.50;6.00;;;;;14.68;59.01;100033.75;5099056;28;8829;-64
2022/06/04 03:50:54;;;;;;;;;6.25;5.00;;;;;14.67;59.42;100033.91;5098497;28;8825;-64
2022/06/04 03:53:21;;;;;;;;;7.00;6.00;;;;;14.67;59.31;100032.06;5098985;28;8826;-64
2022/06/04 03:55:49;;;;;;;;;4.50;4.00;;;;;14.68;59.06;100032.91;5112174;28;8885;-65
2022/06/04 03:58:17;;;;;;;;;5.50;5.50;;;;;14.70;59.27;100041.63;5117690;28;8812;-65
2022/06/04 04:00:45;;;;;;;;;10.50;9.50;;;;;14.75;59.14;100039.38;5117977;28;8840;-64
2022/06/04 04:03:13;;;;;;;;;9.00;7.00;;;;;14.82;59.00;100046.69;5118943;28;8847;-64
2022/06/04 04:05:41;;;;;;;;;5.00;4.50;;;;;14.91;58.88;100053.00;5118291;28;8847;-63
2022/06/04 04:08:10;;;;;;;;;7.00;6.50;;;;;14.96;58.51;100050.75;5118300;28;8827;-64
2022/06/04 04:10:37;;;;;;;;;7.00;6.75;;;;;15.02;58.28;100055.53;5119161;28;8836;-64
2022/06/04 04:13:05;;;;;;;;;8.00;7.00;;;;;15.07;58.13;100066.63;5118746;28;8847;-65
2022/06/04 04:15:33;;;;;;;;;8.50;6.75;;;;;15.11;58.41;100076.09;5118061;28;8861;-64
2022/06/04 04:18:01;;;;;;;;;6.00;6.00;;;;;15.15;59.08;100085.50;5118089;28;8854;-64
2022/06/04 04:20:29;;;;;;;;;5.00;5.00;;;;;15.17;58.19;100078.19;5118232;28;8854;-65
2022/06/04 04:22:57;;;;;;;;;7.00;6.50;;;;;15.21;58.45;100076.88;5118330;28;8828;-65
2022/06/04 04:25:25;;;;;;;;;9.00;6.75;;;;;15.24;58.16;100073.94;5108056;28;8841;-64
2022/06/04 04:27:53;;;;;;;;;9.00;9.00;;;;;15.27;58.26;100078.97;5097351;28;8854;-65
2022/06/04 04:30:20;;;;;;;;;6.00;6.00;;;;;15.29;58.44;100075.16;5097439;28;8923;-64
2022/06/04 04:32:48;;;;;;;;;7.50;7.00;;;;;15.32;58.49;100076.75;5097582;28;8830;-64
2022/06/04 04:35:16;;;;;;;;;6.75;6.50;;;;;15.33;58.49;100081.94;5098062;28;8834;-64
2022/06/04 04:37:44;;;;;;;;;7.00;7.00;;;;;15.35;57.96;100076.44;5097526;28;8906;-64
2022/06/04 04:40:12;;;;;;;;;8.50;7.00;;;;;15.37;57.96;100074.44;5097830;28;8852;-64
2022/06/04 04:42:39;;;;;;;;;9.00;9.00;;;;;15.40;57.97;100069.63;5096915;28;8825;-65
2022/06/04 04:45:07;;;;;;;;;8.00;7.00;;;;;15.41;57.96;100070.47;5097592;28;8830;-69
2022/06/04 04:47:35;;;;;;;;;9.75;9.00;;;;;15.44;58.10;100075.53;5096963;28;9507;-65
2022/06/04 04:50:03;;;;;;;;;7.50;7.00;;;;;15.47;58.06;100061.84;5097031;28;9806;-65
2022/06/04 04:52:31;;;;;;;;;6.00;4.00;;;;;15.48;58.46;100060.84;5096801;28;8856;-64
2022/06/04 04:54:58;;;;;;;;;4.00;4.00;;;;;15.51;57.86;100074.81;5105283;28;8997;-64
2022/06/04 04:57:27;;;;;;;;;4.00;3.75;;;;;15.53;58.11;100071.94;5117637;28;8836;-65
2022/06/04 04:59:54;;;;;;;;;6.25;4.50;;;;;15.57;57.97;100070.66;5118011;28;8827;-64
2022/06/04 05:02:22;;;;;;;;;6.50;6.50;;;;;15.62;58.37;100071.06;5117674;28;8920;-64
2022/06/04 05:04:50;;;;;;;;;8.75;6.75;;;;;15.64;58.23;100083.31;5116114;28;8842;-64
2022/06/04 05:07:18;;;;;;;;;5.00;5.00;;;;;15.67;58.24;100085.72;5116759;28;8857;-64
2022/06/04 05:09:46;;;;;;;;;7.50;6.25;;;;;15.72;58.22;100090.63;5117425;28;8826;-65
2022/06/04 05:12:14;;;;;;;;;7.75;7.75;;;;;15.81;57.33;100082.53;5117559;28;8820;-64
2022/06/04 05:14:42;;;;;;;;;6.75;6.00;;;;;15.92;57.52;100086.84;5115708;28;8828;-65
2022/06/04 05:17:10;;;;;;;;;7.00;7.00;;;;;16.04;57.28;100089.16;5115931;28;8839;-65
2022/06/04 05:19:38;;;;;;;;;7.25;7.25;;;;;16.17;57.40;100101.19;5115346;28;8855;-65
2022/06/04 05:22:06;;;;;;;;;6.25;6.25;;;;;16.27;56.70;100095.75;5117185;28;8835;-64
2022/06/04 05:24:34;;;;;;;;;9.00;6.75;;;;;16.36;56.79;100098.34;5111839;28;8907;-65
2022/06/04 05:27:02;;;;;;;;;7.00;7.00;;;;;16.44;56.71;100097.59;5096231;28;8818;-65
2022/06/04 05:29:31;;;;;;;;;9.00;9.00;;;;;16.51;56.66;100106.72;5096370;28;8834;-64
2022/06/04 05:31:59;;;;;;;;;7.50;7.00;;;;;16.57;56.28;100100.75;5094807;28;8850;-65
2022/06/04 05:34:27;;;;;;;;;9.50;8.00;;;;;16.63;56.03;100106.31;5095961;28;8860;-66
2022/06/04 05:36:54;;;;;;;;;9.00;9.00;;;;;16.72;56.08;100110.75;5096454;28;8826;-65
2022/06/04 05:39:23;;;;;;;;;6.50;5.75;;;;;16.83;56.22;100105.13;5096464;28;8856;-65
2022/06/04 05:41:50;;;;;;;;;6.00;6.00;;;;;16.92;55.91;100117.66;5096499;28;8829;-64
2022/06/04 05:44:18;;;;;;;;;9.25;8.00;;;;;16.98;55.84;100116.16;5096240;28;8849;-65
2022/06/04 05:46:46;;;;;;;;;9.75;6.75;;;;;17.03;55.82;100127.31;5094943;28;8838;-65
2022/06/04 05:49:17;;;;;;;;;9.00;8.50;;;;;17.05;55.96;100128.84;5095651;28;8838;-65
2022/06/04 05:51:45;;;;;;;;;13.50;11.00;;;;;17.09;56.43;100129.38;5094969;28;8948;-64
2022/06/04 05:54:13;;;;;;;;;10.00;10.00;;;;;17.10;56.60;100134.56;5097344;28;9503;-64
2022/06/04 05:56:40;;;;;;;;;6.25;6.25;;;;;17.13;56.07;100128.88;5116129;28;8846;-65
2022/06/04 05:59:08;;;;;;;;;5.50;5.50;;;;;17.18;56.41;100126.56;5115920;28;8832;-65
2022/06/04 06:01:38;;;;;;;;;9.00;8.50;;;;;17.23;56.37;100124.22;5116239;28;8897;-65
2022/06/04 06:04:05;;;;;;;;;8.00;7.50;;;;;17.27;56.06;100128.31;5116257;28;8835;-64
2022/06/04 06:06:33;;;;;;;;;8.50;7.50;;;;;17.29;56.22;100115.50;5115276;28;8866;-65
2022/06/04 06:09:03;;;;;;;;;9.25;8.00;;;;;17.28;56.25;100123.75;5115763;28;8884;-64
2022/06/04 06:11:31;;;;;;;;;9.75;9.25;;;;;17.25;56.26;100135.66;5115178;28;8914;-66
2022/06/04 06:13:59;;;;;;;;;9.75;8.50;;;;;17.27;56.66;100133.69;5115120;28;8843;-67
2022/06/04 06:16:27;;;;;;;;;6.50;6.25;;;;;17.28;56.58;100124.59;5114884;28;8820;-65
2022/06/04 06:18:56;;;;;;;;;8.25;8.00;;;;;17.34;55.89;100134.75;5115301;28;8839;-65
2022/06/04 06:21:24;;;;;;;;;6.50;6.50;;;;;17.40;55.95;100136.78;5114821;28;8840;-65
2022/06/04 06:23:51;;;;;;;;;6.75;6.00;;;;;17.48;56.27;100133.31;5113731;28;8835;-65
2022/06/04 06:26:20;;;;;;;;;9.00;9.00;;;;;17.55;55.53;100142.44;5095161;28;9571;-65
2022/06/04 06:28:48;;;;;;;;;8.50;6.50;;;;;17.63;56.01;100140.59;5095056;28;8837;-65
2022/06/04 06:31:15;;;;;;;;;9.60;9.60;;;;;17.73;55.89;100145.88;5094489;28;8842;-65
2022/06/04 06:33:43;;;;;;;;;12.00;11.00;;;;;17.82;55.66;100139.50;5094475;28;8818;-65
2022/06/04 06:36:11;;;;;;;;;7.80;7.00;;;;;17.91;55.13;100150.16;5094712;28;9549;-65
2022/06/04 06:38:39;;;;;;;;;9.40;8.20;;;;;17.98;55.53;100143.09;5095218;28;8877;-66
2022/06/04 06:41:07;;;;;;;;;9.60;9.00;;;;;18.02;55.69;100139.09;5095144;28;8846;-65
2022/06/04 06:43:35;;;;;;;;;6.00;6.00;;;;;18.08;54.95;100138.41;5094837;28;8840;-65
2022/06/04 06:46:03;;;;;;;;;8.00;6.00;;;;;18.14;55.05;100140.44;5095483;28;8914;-65
2022/06/04 06:48:31;;;;;;;;;10.50;9.25;;;;;18.24;55.26;100151.94;5094071;28;8834;-65
2022/06/04 06:50:59;;;;;;;;;11.20;11.20;;;;;18.41;54.99;100160.91;5094024;28;8849;-65
2022/06/04 06:53:27;;;;;;;;;9.60;9.60;;;;;18.48;54.99;100149.31;5093651;28;8868;-65
2022/06/04 06:55:55;;;;;;;;;10.80;10.00;;;;;18.55;54.81;100165.66;5111375;28;9520;-67
2022/06/04 06:58:22;;;;;;;;;10.00;10.00;;;;;18.60;54.11;100150.66;5115041;28;8854;-65
2022/06/04 07:00:51;;;;;;;;;7.80;6.80;;;;;18.65;54.48;100155.53;5115412;28;8855;-66
2022/06/04 07:03:25;;;;;;;;;10.80;10.00;;;;;18.73;54.11;100147.47;5116114;28;9002;-65
2022/06/04 07:05:53;;;;;;;;;12.00;11.60;;;;;18.81;54.24;100134.81;5106113;28;8826;-65
2022/06/04 07:08:21;;;;;;;;;9.60;9.60;;;;;18.90;53.89;100144.59;5113524;28;8948;-65
2022/06/04 07:10:49;;;;;;;;;10.40;9.60;;;;;18.98;53.61;100144.56;5119384;28;8874;-65
2022/06/04 07:13:17;;;;;;;;;11.20;10.00;;;;;19.02;54.19;100150.47;5119467;28;8823;-65
2022/06/04 07:15:45;;;;;;;;;12.00;11.60;;;;;19.04;54.13;100137.66;5105727;28;8942;-65
2022/06/04 07:18:13;;;;;;;;;10.20;10.20;;;;;19.12;53.81;100135.78;5098676;28;8834;-65
2022/06/04 07:20:42;;;;;;;;;11.40;9.80;;;;;19.28;53.67;100143.88;5098297;28;9697;-65
2022/06/04 07:23:09;;;;;;;;;13.40;10.60;;;;;19.42;53.48;100150.44;5098684;28;8935;-65
2022/06/04 07:25:40;;;;;;;;;10.20;10.20;;;;;19.55;53.01;100143.47;5099143;28;8840;-65
2022/06/04 07:28:07;;;;;;;;;12.00;10.80;;;;;19.67;52.97;100155.59;5098340;28;8852;-65
2022/06/04 07:30:35;;;;;;;;;10.40;10.20;;;;;19.81;52.90;100157.56;5098399;28;8838;-67
2022/06/04 07:33:03;;;;;;;;;11.40;10.80;;;;;19.97;52.58;100156.66;5099259;28;8845;-69
2022/06/04 07:35:31;;;;;;;;;13.40;10.80;;;;;20.12;52.47;100166.59;5098729;28;8953;-65
2022/06/04 07:37:59;;;;;;;;;10.60;8.80;;;;;20.32;52.15;100165.09;5098804;28;8850;-65
2022/06/04 07:40:26;;;;;;;;;13.40;13.00;;;;;20.52;51.84;100163.63;5097914;28;8850;-66
2022/06/04 07:42:55;;;;;;;;;13.00;11.00;;;;;20.70;51.57;100150.63;5098045;28;8840;-65
2022/06/04 07:45:24;;;;;;;;;10.00;10.00;;;;;20.92;50.87;100160.63;5106640;28;8819;-65
2022/06/04 07:47:51;;;;;;;;;14.00;12.20;;;;;21.04;50.53;100151.03;5116785;28;8828;-66
2022/06/04 07:50:19;;;;;;;;;11.00;10.60;;;;;21.12;50.79;100156.38;5118408;28;8831;-65
2022/06/04 07:52:48;;;;;;;;;12.20;11.00;;;;;21.19;50.60;100151.91;5118203;28;8835;-65
2022/06/04 07:55:15;;;;;;;;;11.60;11.60;;;;;21.26;50.85;100158.28;5118792;28;8816;-65
2022/06/04 07:57:43;;;;;;;;;12.00;12.00;;;;;21.33;50.47;100153.81;5118010;28;8854;-66
2022/06/04 08:00:11;;;;;;;;;14.00;12.80;;;;;21.40;50.90;100160.16;5118188;28;8883;-66
2022/06/04 08:02:41;;;;;;;;;16.00;14.20;;;;;21.50;50.38;100155.31;5116948;28;8831;-67
2022/06/04 08:05:09;;;;;;;;;14.40;12.40;;;;;21.61;49.97;100162.97;5117045;28;8946;-65
2022/06/04 08:07:37;;;;;;;;;12.00;12.00;;;;;21.73;49.76;100156.09;5116629;28;8923;-66
2022/06/04 08:10:05;;;;;;;;;11.20;11.20;;;;;21.79;50.19;100166.19;5098552;28;8978;-66
2022/06/04 08:12:33;;;;;;;;;12.00;11.80;;;;;21.82;50.15;100165.81;5116637;28;8836;-69
2022/06/04 08:15:01;;;;;;;;;12.80;12.00;;;;;21.87;50.09;100157.94;5111348;28;8885;-65
2022/06/04 08:17:30;;;;;;;;;6.40;6.00;;;;;21.90;49.96;100160.28;5097153;28;8864;-65
2022/06/04 08:19:58;;;;;;;;;11.20;10.60;;;;;21.93;50.05;100162.63;5097252;28;8957;-65
2022/06/04 08:22:26;;;;;;;;;11.40;10.80;;;;;21.94;49.91;100167.84;5096963;28;8829;-66
2022/06/04 08:24:54;;;;;;;;;13.00;11.20;;;;;21.91;50.38;100172.81;5079556;28;8830;-66
2022/06/04 08:27:23;;;;;;;;;12.40;11.80;;;;;21.89;50.16;100166.72;5097460;28;8838;-65
2022/06/04 08:29:51;;;;;;;;;10.80;10.20;;;;;21.88;50.30;100175.91;5116453;28;8836;-65
2022/06/04 08:32:25;;;;;;;;;15.80;11.80;;;;;21.88;50.29;100173.19;5117198;28;8858;-66
2022/06/04 08:34:53;;;;;;;;;15.00;12.60;;;;;21.86;50.31;100167.13;5116895;28;8876;-67
2022/06/04 08:37:21;;;;;;;;;12.20;12.00;;;;;21.86;50.51;100172.53;5117445;28;8847;-66
2022/06/04 08:39:49;;;;;;;;;6.40;6.00;;;;;21.87;50.50;100169.63;5116571;28;8844;-65
2022/06/04 08:42:17;;;;;;;;;13.40;12.20;;;;;21.85;50.30;100179.00;5116322;28;9498;-66
2022/06/04 08:44:44;;;;;;;;;12.20;12.20;;;;;21.82;50.57;100176.66;5117157;28;8909;-66
2022/06/04 08:47:13;;;;;;;;;11.80;11.80;;;;;21.82;50.59;100182.06;5115972;28;8842;-68
2022/06/04 08:49:40;;;;;;;;;14.80;13.80;;;;;21.85;50.36;100184.44;5115738;28;8851;-66
2022/06/04 08:52:08;;;;;;;;;10.80;9.60;;;;;21.87;51.15;100182.34;5115569;28;9548;-66
2022/06/04 08:57:33;;;;;;;;;13.80;12.00;;;;;22.00;50.40;100188.78;5114863;28;8873;-66
2022/06/04 09:00:01;;;;;;;;;12.00;11.00;;;;;22.06;50.88;100181.75;5095114;28;8984;-66
2022/06/04 09:02:34;;;;;;;;;9.00;9.00;;;;;22.11;50.70;100184.75;5094717;28;8935;-65
2022/06/04 09:05:02;;;;;;;;;12.00;11.60;;;;;22.10;50.91;100185.78;5095042;28;10101;-66
2022/06/04 09:07:31;;;;;;;;;16.60;13.00;;;;;22.14;50.26;100187.06;5095388;28;8850;-66
2022/06/04 09:09:59;;;;;;;;;11.00;10.00;;;;;22.16;50.57;100195.91;5095757;28;8844;-66
2022/06/04 09:12:33;;;;;;;;;11.20;11.00;;;;;22.15;50.48;100189.63;5095845;28;8927;-66
2022/06/04 09:15:01;;;;;;;;;15.20;14.20;;;;;22.19;50.44;100192.78;5095557;28;8941;-66
2022/06/04 09:17:29;;;;;;;;;13.00;12.40;;;;;22.24;50.81;100203.94;5096013;28;8934;-66
2022/06/04 09:19:57;;;;;;;;;11.80;11.60;;;;;22.29;50.74;100212.31;5095864;28;8834;-66
2022/06/04 09:22:24;;;;;;;;;13.00;12.40;;;;;22.35;50.18;100211.56;5094208;28;8958;-66
2022/06/04 09:24:52;;;;;;;;;14.20;13.20;;;;;22.36;50.32;100207.81;5095642;28;8936;-66
2022/06/04 09:27:20;;;;;;;;;16.00;14.40;;;;;22.37;50.49;100212.19;5094534;28;8830;-66
2022/06/04 09:29:48;;;;;;;;;13.00;13.00;;;;;22.37;50.47;100207.63;5115308;28;8804;-65
2022/06/04 09:32:16;;;;;;;;;11.40;11.40;;;;;22.45;50.72;100203.97;5112591;28;8849;-70
2022/06/04 09:34:44;;;;;;;;;8.80;8.20;;;;;22.64;50.14;100211.53;5114736;28;8840;-66
2022/06/04 09:37:12;;;;;;;;;14.80;12.40;;;;;22.85;49.43;100208.81;5114712;28;8865;-66
2022/06/04 09:39:40;;;;;;;;;13.00;11.20;;;;;23.11;49.29;100209.91;5114108;28;8828;-65
2022/06/04 09:42:08;;;;;;;;;13.00;12.00;;;;;23.40;48.83;100211.66;5114354;28;8908;-66
2022/06/04 09:44:35;;;;;;;;;13.40;12.80;;;;;23.69;48.69;100206.00;5114986;28;8919;-66
2022/06/04 09:47:03;;;;;;;;;18.60;14.00;;;;;23.91;47.88;100211.19;5114711;28;8844;-65
2022/06/04 09:49:31;;;;;;;;;8.60;8.60;;;;;23.95;48.12;100208.91;5114855;28;9832;-66
2022/06/04 09:51:59;;;;;;;;;10.20;10.20;;;;;23.89;48.11;100205.09;5115082;28;8846;-65
2022/06/04 09:54:28;;;;;;;;;15.40;14.40;;;;;23.93;48.26;100208.28;5115297;28;9505;-66
2022/06/04 09:56:56;;;;;;;;;9.00;8.00;;;;;24.13;48.02;100198.34;5116080;28;8856;-67
2022/06/04 09:59:25;;;;;;;;;14.20;13.60;;;;;24.26;47.48;100196.50;5098816;28;8818;-66
2022/06/04 10:01:53;;;;;;;;;11.00;11.00;;;;;24.34;47.78;100206.38;5094911;28;8880;-66
2022/06/04 10:04:21;;;;;;;;;11.60;11.60;;;;;24.36;47.65;100199.66;5094939;28;8869;-66
2022/06/04 10:06:48;;;;;;;;;14.00;11.60;;;;;24.29;47.72;100200.72;5094511;28;8860;-67
2022/06/04 10:12:03;;;;;;;;;7.80;7.40;;;;;24.16;48.12;100198.78;5095082;28;9107;-67
2022/06/04 10:14:29;;;;;;;;;15.00;11.80;;;;;24.10;48.28;100199.56;5094948;28;8962;-67
2022/06/04 10:16:59;;;;;;;;;10.80;10.80;;;;;24.07;48.16;100194.53;5095118;28;8837;-66
2022/06/04 10:19:27;;;;;;;;;6.00;6.00;;;;;24.08;48.49;100203.53;5094252;28;8879;-66
2022/06/04 10:21:54;;;;;;;;;14.60;13.20;;;;;24.14;47.93;100213.63;5094372;28;8852;-67
2022/06/04 10:24:22;;;;;;;;;13.80;11.00;;;;;24.18;48.39;100209.44;5094224;28;8826;-65
2022/06/04 10:26:50;;;;;;;;;11.00;10.80;;;;;24.18;48.16;100204.00;5094760;28;8837;-65
2022/06/04 10:29:18;;;;;;;;;13.00;10.60;;;;;24.18;48.22;100212.16;5109394;28;8908;-65
2022/06/04 10:31:46;;;;;;;;;14.00;11.80;;;;;24.12;48.28;100213.00;5114297;28;8860;-65
2022/06/04 10:34:14;;;;;;;;;11.40;11.40;;;;;24.16;47.79;100203.38;5114570;28;8820;-67
2022/06/04 10:36:42;;;;;;;;;13.40;12.40;;;;;24.22;48.36;100208.84;5113420;28;8843;-65
2022/06/04 10:39:09;;;;;;;;;13.60;13.40;;;;;24.30;47.66;100202.38;5114548;28;8946;-65
2022/06/04 10:41:37;;;;;;;;;10.00;9.80;;;;;24.38;48.16;100203.06;5114185;28;8967;-65
2022/06/04 10:44:05;;;;;;;;;10.40;10.40;;;;;24.41;47.26;100209.97;5112757;28;8852;-65
2022/06/04 10:46:33;;;;;;;;;10.60;10.60;;;;;24.45;47.70;100205.78;5112933;28;8835;-65
2022/06/04 10:49:01;;;;;;;;;7.80;6.00;;;;;24.53;47.38;100211.06;5112951;28;8836;-65
2022/06/04 10:51:28;;;;;;;;;14.20;13.20;;;;;24.59;47.21;100210.28;5112907;28;8846;-65
2022/06/04 10:53:57;;;;;;;;;7.40;6.80;;;;;24.62;47.79;100216.16;5112914;28;8844;-65
2022/06/04 10:56:24;;;;;;;;;11.00;11.00;;;;;24.60;47.23;100220.97;5113480;28;8828;-66
2022/06/04 10:58:52;;;;;;;;;12.60;11.60;;;;;24.55;47.86;100219.84;5103255;28;8833;-65
2022/06/04 11:01:25;;;;;;;;;11.60;11.20;;;;;24.55;47.26;100231.63;5094631;28;8862;-66
2022/06/04 11:03:52;;;;;;;;;11.40;11.00;;;;;24.63;47.69;100225.16;5095656;28;8997;-65
2022/06/04 11:06:20;;;;;;;;;11.20;10.80;;;;;24.71;47.29;100219.53;5095271;28;8825;-66
2022/06/04 11:08:48;;;;;;;;;10.00;10.00;;;;;24.82;46.90;100217.06;5094594;28;8834;-65
2022/06/04 11:11:16;;;;;;;;;9.00;9.00;;;;;25.01;46.83;100215.38;5094339;28;8842;-65
2022/06/04 11:13:44;;;;;;;;;1.80;1.40;;;;;25.02;46.75;100217.91;5094529;28;8860;-67
2022/06/04 11:16:12;;;;;;;;;12.20;10.20;;;;;24.98;47.09;100218.53;5093817;28;8841;-65
2022/06/04 11:18:40;;;;;;;;;11.00;10.20;;;;;24.95;46.79;100211.59;5093902;28;8838;-65
2022/06/04 11:21:08;;;;;;;;;9.80;9.60;;;;;25.00;47.22;100213.69;5092682;28;8826;-65
2022/06/04 11:23:35;;;;;;;;;12.20;10.60;;;;;25.08;46.63;100213.50;5093642;28;8863;-65
2022/06/04 11:26:03;;;;;;;;;10.80;10.40;;;;;25.19;46.17;100212.91;5098479;28;8959;-65
2022/06/04 11:28:31;;;;;;;;;10.40;10.40;;;;;25.24;46.45;100211.25;5093909;28;8852;-65
2022/06/04 11:30:59;;;;;;;;;13.80;12.00;;;;;25.32;46.46;100212.94;5093279;28;8857;-65
2022/06/04 11:33:27;;;;;;;;;12.80;11.00;;;;;25.36;45.83;100222.38;5092763;28;8825;-66
2022/06/04 11:35:54;;;;;;;;;11.00;10.80;;;;;25.39;46.07;100211.06;5093476;28;8854;-68
2022/06/04 11:38:23;;;;;;;;;9.60;8.80;;;;;25.64;45.52;100204.72;5093707;28;8826;-66
2022/06/04 11:40:50;;;;;;;;;8.60;8.60;;;;;25.91;45.30;100206.38;5093243;28;8826;-66
2022/06/04 11:43:18;;;;;;;;;12.00;11.40;;;;;26.11;45.05;100208.00;5091959;28;8838;-66